Aviation Digital Data Service (ADDS)

Output produced by METARs form (1304 UTC 25 September 2018)
found at http://www.aviationweather.gov/metar/data/
 
VEAT 251300Z 00000KT 4000 BR SCT018 BKN100 26/25 Q1007 NOSIG
VOAT 251130Z 34005KT 6000 SCT015 30/24 Q1008 NOSIG
VAAH 251230Z 11004KT 6000 NSC 33/25 Q1008 BECMG 5000FU
TAF VAAH 251100Z 2512/2618 25004KT 4000 HZ FEW025 
     BECMG 2512/2514 25005KT 4000 HZ 
     BECMG 2601/2603 27005KT 3000 HZ SCT020 
     BECMG 2604/2606 27006KT 5000 HZ 
     BECMG 2612/2614 31007KT 4000 HZ
       
VIAR 251230Z 00000KT 5000 HZ FEW035 28/18 Q1008 NOSIG
TAF VIAR 251100Z 2512/2618 25003KT 6000 SCT035 
     BECMG 2521/2523 25005KT 3500 BR FEW040 SCT100 
     BECMG 2604/2606 27008KT 4500 HZ FEW035
       
VAAU 251200Z 32005KT 6000 FEW020 31/23 Q1010 NOSIG
VOBG 251200Z 28002KT 6000 TS SCT012 SCT020 FEW025CB 24/19 Q1012
TAF VOBG 251100Z 2512/2521 VRB03KT 6000 SCT012 SCT018 
     TEMPO 2512/2518 3000 TSRA RA SCT012 SCT018 FEW025CB BKN080
       
VABV 251230Z 15014KT 6000 FEW020 30/23 Q1008
VABP 251300Z 28002KT 6000 FEW100 30/22 Q1010 NOSIG
VEBS 251230Z 24002KT 4000 TS BKN018 FEW030CB BKN100 26/24 Q1006 TEMPO 1500 TSRA
VERC 251300Z 00000KT 2000 -TSRA FEW010 SCT015 FEW030CB BKN100 23/22 Q1011 NOSIG
VOCL 251230Z 28008KT 6000 FEW015 FEW025CB BKN090 29/23 Q1008 NOSIG
TAF VOCL 251100Z 2512/2618 29010KT 6000 FEW015 FEW025CB SCT080 
     BECMG 2522/2602 VRB05KT 3000 RA SCT008 SCT012 FEW025CB BKN080 
     BECMG 2604/2606 29010KT 6000 SCT015 SCT080 
     TEMPO 2612/2616 2500 TSRA RA SCT006 SCT012 FEW025CB BKN080 
     BECMG 2617/2618 VRB05KT 6000 HZ SCT015 SCT080
       
VOMM 251300Z 12008KT 6000 SCT020 FEW025CB 29/25 Q1008 NOSIG
TAF VOMM 251100Z 2512/2618 14010KT 6000 FEW020 SCT100 
     TEMPO 2512/2518 SCT018 FEW025TCU/CB BKN100 
     BECMG 2518/2519 20005KT 
     BECMG 2521/2522 VRB02KT 5000 BR 
     TEMPO 2600/2603 3000 BR 
     BECMG 2603/2604 20005KT 6000 
     BECMG 2606/2607 14010KT
       
VABB 251300Z 33007KT 5000 HZ FEW020 29/23 Q1009 NOSIG
TAF VABB 251100Z 2512/2618 27010KT 6000 HZ FEW020 SCT025 
     BECMG 2514/2516 4000 HZ 
     BECMG 2518/2520 3000 HZ 
     TEMPO 2515/2603 -RA -DZ FEW012 SCT018 BKN080 
     BECMG 2600/2602 11003KT 2000 BR 
     BECMG 2606/2608 23006KT 3000 HZ 
     BECMG 2610/2612 5000 HZ
       
VOCI 251300Z 30006KT 5000 HZ FEW020 29/22 Q1008 NOSIG
TAF VOCI 251100Z 2512/2618 30010KT 5000 HZ FEW015 SCT080 
     BECMG 2514/2516 VRB05KT 4000 HZ TS FEW015 FEW025CB BKN080 
     TEMPO 2522/2603 00000KT 2500 RA BR SCT010 SCT015 FEW025CB BKN080 
     BECMG 2604/2606 30010KT 5000 HZ SCT015 SCT080 
     TEMPO 2612/2616 2500 TSRA RA SCT008 SCT012 FEW025CB BKN080 
     BECMG 2617/2618 VRB05KT 4000 HZ SCT015 SCT080
       
VOCB 251300Z 25005KT 6000 FEW015 FEW020CB 27/21 Q1010 NOSIG
TAF VOCB 251100Z 2512/2618 20010KT 6000 FEW015 SCT080 
     TEMPO 2512/2518 SCT015 FEW020TCU/CB BKN080 
     BECMG 2518/2519 00000KT 5000 BR 
     BECMG 2603/2604 20010KT 6000
       
VOCP 251030Z 07011KT 6000 FEW020 FEW025CB 33/22 Q1005
VAID 251200Z 32005KT 5000 HZ NSC 29/22 Q1011 NOSIG
VEMN 251200Z 05007KT 2000 BR SCT008 SCT018 FEW025CB OVC090 24/23 Q1007 NOSIG
VEGT 251230Z 01004KT 3000 BR SCT016 FEW025CB BKN100 29/27 Q1005 NOSIG
VIGR 251200Z 27002KT 4000 HZ NSC 31/23 Q1006
VOHY 251300Z 09005KT 4000 HZ SCT015 BKN080 FEW030CB 27/24 Q1012 NOSIG
VEIM 251100Z 27006KT 5000 BR SCT018 SCT020 BKN100 26/22 Q1009 NOSIG
VIDP 251300Z 32005KT 4000 BR FEW035 SCT100 26/23 Q1008 NOSIG
TAF VIDP 251100Z 2512/2618 32007KT 4500 BR SCT030 OVC080 
     BECMG 2521/2523 25005KT 2500 BR FEW040 SCT100 
     BECMG 2604/2606 27005KT 3500 HZ FEW035
       
VAJB 251200Z 00000KT 4000 HZ SCT030 30/22 Q1009
VIJP 251230Z 29005KT 3000 HZ FEW035 32/20 Q1008 NOSIG
TAF VIJP 251100Z 2512/2618 28005KT 3000 HZ FEW035 
     BECMG 2513/2515 2000 HZ 
     BECMG 2605/2606 29008KT 5000 HZ SCT030 
     BECMG 2613/2615 23005KT 3000 HZ NSC
       
VEJS 251200Z 21004KT 4000 HZ SCT015 SCT025 BKN100 29/25 Q1006
VELP 250930Z 36007KT 5000 HZ SCT016 FEW030CB BKN100 31/22 Q1009 NOSIG
VILK 251230Z 27007KT 4000 HZ SCT020 30/23 Q1006 NOSIG
TAF VILK 251100Z 2512/2618 28006KT 3000 HZ BR FEW020 SCT025 
     TEMPO 2515/2518 FEW030CB 
     BECMG 2600/2602 VRB02KT 2500 BR FEW020 SCT025 BKN100 
     BECMG 2608/2610 32008KT 5000 HZ 
     TEMPO 2602/2605 1500 RA TSRA FEW030CB OVC090
       
VOMD 251230Z 14005KT 6000 SCT018 FEW025CB BKN090 34/22 Q1008 NOSIG
TAF VOMD 251100Z 2512/2618 12005KT 6000 FEW020 SCT100 
     TEMPO 2512/2518 SCT016 FEW025TCU/CB BKN100 
     BECMG 2517/2518 VRB02KT 5000 BR 
     TEMPO 2518/2524 4000 -TSRA/RA SCT016 FEW025CB BKN080 
     BECMG 2603/2604 6000
       
VOML 251300Z 30006KT 6000 FEW015 SCT080 28/23 Q1009 NOSIG
TAF VOML 251100Z 2512/2618 27010KT 6000 SCT015 
     TEMPO 2512/2515 4000 RA DZ SCT006 SCT015 BKN080 
     BECMG 2517/2518 VRB02KT 
     TEMPO 2600/2603 3000 BR SCT005 
     BECMG 2607/2608 27010KT
       
VANP 251230Z 00000KT 6000 FEW020 FEW025TCU 31/23 Q1008 TEMPO 5000 HZ
TAF VANP 251100Z 2512/2618 30005KT 4000 HZ FEW020 SCT100 
     BECMG 2600/2602 32005KT 3000 HZ FEW020 SCT100 
     BECMG 2604/2606 34005KT 5000 HZ SCT020 SCT025 
     BECMG 2612/2614 33005KT 4000 HZ SCT020 SCT100
       
VECC 251300Z 15006KT 2800 HZ SCT018 BKN100 29/26 Q1006 NOSIG
TAF VECC 251100Z 2512/2618 19005KT 3200 HZ SCT018 SCT100 
     BECMG 2522/2524 2600 HZ 
     BECMG 2602/2604 3500 HZ 
     TEMPO 2606/2610 1500 TSRA SCT015 FEW025CB OVC090
       
VEPT 251300Z 00000KT 4500 HZ FEW020 SCT250 29/26 Q1004 NOSIG
TAF VEPT 251100Z 2512/2618 27004KT 5000 HZ FEW018 SCT0250 
     BECMG 2516/2518 4000 HZ FEW018 SCT100 
     BECMG 2523/2601 00000KT 3000 BR SCT020 
     BECMG 2604/2606 27004KT 4000 HZ SCT020 SCT025 
     BECMG 2610/2612 5000 HZ SCT020 BKN100 
     BECMG 2615/2617 23004KT 4000 HZ
       
VORY 251300Z 00000KT 6000 TS SCT020 SCT025 FEW030CB OVC080 29/24 Q1008 NOSIG
VARK 251200Z 29008KT 6000 NSC 35/18 Q1008
VASU 251300Z 20003KT 6000 FEW020 28/24 Q1008
VOTV 251300Z 32008KT 4000 HZ SCT015 SCT080 FEW025CB 28/25 Q1008 NOSIG
TAF VOTV 251100Z 2512/2618 30015KT 5000 HZ SCT015 FEW025CB SCT080 
     BECMG 2514/2516 3000 HZ 
     TEMPO 2522/2603 VRB05KT 2000 RA BR SCT010 SCT015 FEW025CB BKN080 
     BECMG 2604/2606 30010KT 6000 FEW015 SCT080 
     TEMPO 2612/2616 2500 TSRA RA SCT008 SCT012 FEW025CB BKN080 
     BECMG 2617/2618 3000 HZ FEW015 SCT080
       
VOTR 251300Z 09009KT 6000 FEW016 FEW025CB 33/22 Q1006 NOSIG
TAF VOTR 251100Z 2512/2618 12010KT 6000 FEW018 SCT100 
     TEMPO 2512/2518 SCT016 FEW025TCU/CB BKN100 
     BECMG 2521/2522 00000KT 
     BECMG 2603/2604 27005KT 
     BECMG 2608/2609 12005KT
       
VOTP 251300Z 07005KT 6000 SCT020 32/22 Q1007
VAUD 251200Z 27004KT 6000 FEW035 31/19 Q1010 BECMG 5000M IN HZ
VABO 251300Z 20002KT 6000 FEW020 32/24 Q1008 NOSIG
VOBZ 251300Z 14003KT 4000 TS SCT020 SCT030CB BKN100 30/26 Q1007 NOSIG